createdAt,value
2023-02-28T00:00:31.560Z,14.60
2023-02-28T00:01:50.700Z,16.40
2023-02-28T00:02:53.657Z,16.40
2023-02-28T00:03:57.117Z,15.90
2023-02-28T00:05:02.438Z,16.40
2023-02-28T00:06:07.417Z,16.20
2023-02-28T00:07:10.909Z,16.60
2023-02-28T00:08:14.297Z,17.70
2023-02-28T00:09:17.163Z,17.20
2023-02-28T00:10:26.130Z,17.60
2023-02-28T00:11:29.289Z,18.00
2023-02-28T00:12:32.397Z,16.60
2023-02-28T00:13:38.544Z,16.50
2023-02-28T00:14:41.423Z,15.60
2023-02-28T00:15:45.179Z,16.50
2023-02-28T00:16:48.066Z,16.40
2023-02-28T00:17:51.483Z,16.40
2023-02-28T00:18:54.553Z,16.80
2023-02-28T00:19:57.986Z,16.40
2023-02-28T00:21:00.935Z,16.90
2023-02-28T00:22:04.392Z,17.00
2023-02-28T00:23:07.292Z,17.00
2023-02-28T00:24:10.165Z,16.50
2023-02-28T00:25:16.378Z,17.90
2023-02-28T00:26:21.709Z,16.10
2023-02-28T00:27:25.961Z,16.20
2023-02-28T00:28:28.987Z,15.70
2023-02-28T00:29:31.852Z,16.50
2023-02-28T00:30:34.786Z,15.80
2023-02-28T00:31:41.394Z,15.20
2023-02-28T00:32:45.104Z,15.40
2023-02-28T00:33:47.975Z,15.70
2023-02-28T00:34:51.247Z,14.80
2023-02-28T00:36:02.902Z,14.50
2023-02-28T00:37:07.478Z,16.10
2023-02-28T00:38:10.418Z,17.10
2023-02-28T00:39:13.269Z,15.70
2023-02-28T00:40:16.201Z,16.50
2023-02-28T00:41:19.381Z,17.40
2023-02-28T00:42:24.489Z,17.00
2023-02-28T00:43:27.382Z,18.50
2023-02-28T00:44:31.330Z,18.70
2023-02-28T00:45:34.301Z,18.40
2023-02-28T00:46:37.120Z,16.90
2023-02-28T00:47:40.113Z,17.70
2023-02-28T00:48:43.375Z,17.90
2023-02-28T00:49:46.184Z,17.10
2023-02-28T00:50:52.190Z,18.10
2023-02-28T00:51:56.600Z,16.70
2023-02-28T00:52:59.523Z,15.30
2023-02-28T00:54:03.433Z,16.30
2023-02-28T00:55:06.568Z,16.10
2023-02-28T00:56:09.901Z,16.50
2023-02-28T00:57:12.751Z,17.70
2023-02-28T00:58:16.565Z,16.50
2023-02-28T00:59:19.620Z,17.20
2023-02-28T01:00:22.685Z,16.20
2023-02-28T01:01:27.341Z,17.50
2023-02-28T01:02:30.413Z,17.40
2023-02-28T01:03:33.490Z,17.60
2023-02-28T01:04:36.548Z,16.60
2023-02-28T01:05:39.457Z,16.50
2023-02-28T01:06:43.008Z,16.50
2023-02-28T01:07:47.112Z,16.90
2023-02-28T01:08:50.470Z,16.70
2023-02-28T01:09:53.440Z,16.80
2023-02-28T01:10:56.751Z,16.50
2023-02-28T01:11:59.733Z,16.00
2023-02-28T01:13:02.636Z,17.20
2023-02-28T01:14:06.081Z,16.60
2023-02-28T01:15:12.389Z,16.40
2023-02-28T01:16:20.524Z,17.40
2023-02-28T01:17:23.461Z,17.00
2023-02-28T01:18:26.886Z,18.50
2023-02-28T01:19:29.940Z,17.20
2023-02-28T01:20:32.851Z,17.70
2023-02-28T01:21:36.732Z,17.20
2023-02-28T01:22:39.621Z,19.00
2023-02-28T01:23:44.817Z,16.60
2023-02-28T01:24:48.449Z,18.60
2023-02-28T01:25:52.533Z,16.90
2023-02-28T01:26:55.417Z,16.90
2023-02-28T01:27:58.386Z,16.90
2023-02-28T01:29:04.151Z,18.70
2023-02-28T01:30:08.990Z,18.20
2023-02-28T01:31:13.330Z,17.30
2023-02-28T01:32:16.273Z,17.00
2023-02-28T01:33:19.292Z,15.50
2023-02-28T01:34:22.212Z,17.10
2023-02-28T01:35:25.117Z,16.30
2023-02-28T01:36:27.971Z,16.80
2023-02-28T01:37:32.295Z,16.70
2023-02-28T01:38:35.418Z,17.60
2023-02-28T01:39:38.327Z,16.80
2023-02-28T01:40:41.199Z,16.90
2023-02-28T01:41:44.273Z,16.50
2023-02-28T01:42:47.102Z,17.50
2023-02-28T01:43:49.951Z,16.60
2023-02-28T01:44:58.063Z,17.20
2023-02-28T01:46:01.603Z,17.30
2023-02-28T01:47:04.575Z,17.10
2023-02-28T01:48:10.141Z,17.20
2023-02-28T01:49:18.110Z,16.40
2023-02-28T01:50:26.497Z,16.20
2023-02-28T01:51:41.266Z,17.30
2023-02-28T01:52:46.709Z,15.90
2023-02-28T01:54:02.683Z,16.00
2023-02-28T01:55:07.987Z,15.40
2023-02-28T01:56:21.647Z,16.70
2023-02-28T01:57:38.578Z,15.90
2023-02-28T01:58:41.769Z,16.30
2023-02-28T02:00:08.540Z,16.10
2023-02-28T02:01:22.464Z,16.90
2023-02-28T02:03:32.228Z,15.40
2023-02-28T02:05:03.633Z,15.50
2023-02-28T02:06:06.584Z,14.50
2023-02-28T02:07:10.835Z,15.30
2023-02-28T02:08:17.255Z,15.80
2023-02-28T02:09:20.158Z,16.00
2023-02-28T02:10:33.519Z,16.90
2023-02-28T02:11:37.591Z,17.20
2023-02-28T02:12:55.747Z,17.50
2023-02-28T02:14:43.377Z,16.30
2023-02-28T02:16:20.135Z,16.60
2023-02-28T02:17:35.513Z,17.20
2023-02-28T02:18:47.451Z,16.70
2023-02-28T02:20:11.254Z,16.20
2023-02-28T02:21:41.937Z,15.40
2023-02-28T02:23:11.990Z,16.20
2023-02-28T02:24:24.003Z,16.00
2023-02-28T02:25:34.186Z,15.90
2023-02-28T02:26:55.875Z,15.60
2023-02-28T02:28:36.334Z,15.30
2023-02-28T02:29:58.785Z,15.90
2023-02-28T02:31:53.113Z,15.60
2023-02-28T02:33:17.666Z,14.80
2023-02-28T02:34:35.699Z,16.10
2023-02-28T02:35:55.004Z,16.10
2023-02-28T02:37:22.539Z,16.10
2023-02-28T02:38:55.788Z,14.90
2023-02-28T02:40:01.816Z,15.80
2023-02-28T02:41:34.871Z,15.40
2023-02-28T02:42:44.838Z,14.70
2023-02-28T02:43:53.970Z,15.00
2023-02-28T02:45:02.485Z,14.00
2023-02-28T02:46:11.486Z,15.30
2023-02-28T02:47:19.755Z,14.40
2023-02-28T02:48:27.866Z,14.90
2023-02-28T02:49:34.031Z,14.90
2023-02-28T02:50:44.021Z,16.00
2023-02-28T02:51:49.191Z,14.50
2023-02-28T02:52:57.836Z,14.70
2023-02-28T02:54:16.843Z,15.10
2023-02-28T02:55:23.375Z,15.30
2023-02-28T02:56:31.736Z,14.90
2023-02-28T02:57:52.220Z,15.10
2023-02-28T02:59:01.384Z,15.10
2023-02-28T03:00:09.554Z,15.00
2023-02-28T03:01:28.686Z,15.20
2023-02-28T03:03:38.691Z,14.70
2023-02-28T03:04:47.373Z,14.90
2023-02-28T03:05:51.818Z,16.70
2023-02-28T03:06:55.831Z,17.40
2023-02-28T03:07:59.016Z,15.90
2023-02-28T03:09:02.653Z,16.70
2023-02-28T03:10:29.967Z,16.30
2023-02-28T03:11:36.233Z,15.90
2023-02-28T03:12:50.988Z,15.70
2023-02-28T03:14:00.146Z,16.30
2023-02-28T03:15:16.704Z,16.80
2023-02-28T03:16:51.002Z,15.30
2023-02-28T03:18:17.206Z,16.70
2023-02-28T03:19:41.366Z,15.80
2023-02-28T03:20:56.441Z,16.20
2023-02-28T03:22:30.101Z,16.70
2023-02-28T03:23:55.263Z,16.20
2023-02-28T03:25:10.631Z,16.60
2023-02-28T03:26:21.710Z,16.30
2023-02-28T03:27:36.025Z,15.50
2023-02-28T03:28:55.010Z,16.50
2023-02-28T03:30:27.388Z,15.60
2023-02-28T03:31:36.599Z,16.10
2023-02-28T03:33:15.295Z,16.10
2023-02-28T03:34:25.662Z,16.00
2023-02-28T03:35:42.805Z,16.60
2023-02-28T03:36:50.402Z,16.20
2023-02-28T03:38:00.203Z,17.80
2023-02-28T03:39:08.605Z,17.50
2023-02-28T03:40:21.295Z,17.40
2023-02-28T03:41:31.751Z,17.50
2023-02-28T03:42:38.202Z,16.60
2023-02-28T03:43:49.847Z,16.40
2023-02-28T03:45:02.159Z,17.00
2023-02-28T03:46:10.462Z,17.50
2023-02-28T03:47:23.705Z,17.20
2023-02-28T03:48:57.216Z,17.00
2023-02-28T03:50:12.587Z,16.90
2023-02-28T03:51:18.817Z,16.90
2023-02-28T03:52:26.514Z,17.10
2023-02-28T03:53:38.796Z,17.00
2023-02-28T03:54:46.791Z,17.70
2023-02-28T03:56:02.889Z,18.50
2023-02-28T03:57:33.931Z,18.70
2023-02-28T03:58:59.248Z,18.60
2023-02-28T04:00:08.976Z,19.10
2023-02-28T04:01:42.535Z,19.20
2023-02-28T04:02:46.429Z,19.10
2023-02-28T04:03:51.304Z,19.00
2023-02-28T04:04:54.797Z,19.60
2023-02-28T04:05:58.834Z,19.90
2023-02-28T04:07:08.782Z,20.10
2023-02-28T04:08:11.673Z,18.80
2023-02-28T04:09:15.629Z,19.30
2023-02-28T04:10:18.961Z,20.00
2023-02-28T04:11:34.978Z,19.90
2023-02-28T04:12:37.864Z,19.10
2023-02-28T04:13:40.729Z,19.50
2023-02-28T04:14:43.623Z,18.80
2023-02-28T04:15:46.475Z,18.90
2023-02-28T04:16:49.683Z,19.40
2023-02-28T04:17:52.627Z,17.70
2023-02-28T04:19:04.641Z,19.20
2023-02-28T04:20:10.706Z,18.90
2023-02-28T04:21:14.432Z,18.50
2023-02-28T04:22:18.923Z,19.60
2023-02-28T04:23:21.835Z,19.90
2023-02-28T04:24:27.325Z,19.70
2023-02-28T04:25:30.163Z,18.30
2023-02-28T04:26:35.012Z,18.10
2023-02-28T04:27:38.112Z,18.80
2023-02-28T04:28:40.996Z,19.20
2023-02-28T04:29:45.704Z,18.70
2023-02-28T04:30:49.173Z,17.80
2023-02-28T04:31:54.345Z,19.50
2023-02-28T04:32:57.491Z,19.00
2023-02-28T04:34:01.187Z,19.30
2023-02-28T04:35:04.401Z,19.30
2023-02-28T04:36:09.599Z,19.80
2023-02-28T04:37:14.236Z,21.10
2023-02-28T04:38:17.451Z,20.90
2023-02-28T04:39:20.803Z,19.60
2023-02-28T04:40:23.668Z,20.20
2023-02-28T04:41:27.301Z,20.20
2023-02-28T04:42:36.730Z,21.80
2023-02-28T04:43:40.001Z,14.30
2023-02-28T04:44:42.878Z,19.60
2023-02-28T04:45:46.136Z,19.40
2023-02-28T04:46:50.291Z,19.80
2023-02-28T04:47:54.796Z,21.70
2023-02-28T04:48:57.994Z,20.90
2023-02-28T04:50:00.833Z,19.90
2023-02-28T04:51:09.991Z,20.60
2023-02-28T04:52:14.389Z,20.30
2023-02-28T04:53:18.087Z,21.20
2023-02-28T04:54:21.055Z,20.70
2023-02-28T04:55:24.031Z,21.70
2023-02-28T04:56:26.939Z,20.10
2023-02-28T04:57:31.088Z,20.30
2023-02-28T04:58:35.032Z,21.20
2023-02-28T04:59:38.065Z,21.40
2023-02-28T05:00:41.126Z,20.90
2023-02-28T05:01:47.835Z,20.90
2023-02-28T05:02:50.754Z,21.80
2023-02-28T05:03:56.332Z,22.20
2023-02-28T05:04:59.300Z,21.10
2023-02-28T05:06:02.194Z,22.50
2023-02-28T05:07:05.299Z,22.00
2023-02-28T05:08:08.159Z,22.80
2023-02-28T05:09:13.963Z,22.80
2023-02-28T05:10:17.095Z,21.70
2023-02-28T05:11:26.540Z,22.00
2023-02-28T05:12:29.519Z,21.60
2023-02-28T05:13:32.443Z,21.50
2023-02-28T05:14:35.367Z,21.20
2023-02-28T05:15:38.303Z,22.60
2023-02-28T05:16:41.245Z,23.80
2023-02-28T05:17:44.531Z,22.80
2023-02-28T05:18:48.396Z,22.10
2023-02-28T05:19:51.692Z,22.90
2023-02-28T05:20:54.831Z,21.50
2023-02-28T05:21:57.812Z,23.40
2023-02-28T05:23:02.492Z,22.60
2023-02-28T05:24:08.940Z,22.10
2023-02-28T05:25:16.971Z,22.90
2023-02-28T05:26:20.402Z,22.10
2023-02-28T05:27:23.848Z,22.50
2023-02-28T05:28:26.793Z,22.70
2023-02-28T05:29:29.686Z,24.50
2023-02-28T05:30:32.789Z,23.80
2023-02-28T05:31:36.822Z,24.00
2023-02-28T05:32:43.882Z,23.20
2023-02-28T05:33:47.348Z,24.20
2023-02-28T05:34:50.226Z,23.50
2023-02-28T05:35:53.295Z,22.80
2023-02-28T05:36:56.141Z,22.50
2023-02-28T05:37:59.089Z,21.50
2023-02-28T05:39:02.003Z,21.90
2023-02-28T05:40:07.727Z,22.00
2023-02-28T05:41:12.063Z,21.00
2023-02-28T05:42:14.945Z,22.10
2023-02-28T05:43:17.802Z,21.10
2023-02-28T05:44:20.708Z,21.80
2023-02-28T05:45:23.562Z,21.70
2023-02-28T05:46:26.541Z,21.80
2023-02-28T05:47:29.489Z,22.20
2023-02-28T05:48:33.134Z,21.20
2023-02-28T05:49:36.005Z,21.80
2023-02-28T05:50:38.934Z,22.20
2023-02-28T05:51:41.803Z,21.80
2023-02-28T05:52:44.636Z,21.90
2023-02-28T05:53:49.287Z,22.50
2023-02-28T05:54:52.698Z,21.80
2023-02-28T05:55:55.776Z,21.80
2023-02-28T05:56:58.640Z,22.80
2023-02-28T05:58:01.745Z,21.10
2023-02-28T05:59:04.895Z,21.50
2023-02-28T06:00:08.958Z,21.10
2023-02-28T06:01:36.763Z,21.30
2023-02-28T06:02:41.522Z,20.80
2023-02-28T06:03:44.462Z,20.60
2023-02-28T06:04:47.513Z,21.00
2023-02-28T06:05:51.493Z,21.60
2023-02-28T06:06:54.794Z,21.80
2023-02-28T06:07:57.709Z,20.30
2023-02-28T06:09:01.782Z,20.80
2023-02-28T06:10:07.959Z,23.70
2023-02-28T06:11:11.658Z,21.60
2023-02-28T06:12:14.778Z,21.40
2023-02-28T06:13:17.736Z,20.70
2023-02-28T06:14:21.686Z,20.80
2023-02-28T06:15:24.736Z,21.30
2023-02-28T06:16:29.989Z,21.60
2023-02-28T06:17:33.750Z,19.80
2023-02-28T06:18:36.656Z,21.50
2023-02-28T06:19:42.876Z,20.40
2023-02-28T06:20:45.772Z,20.80
2023-02-28T06:21:53.402Z,20.10
2023-02-28T06:22:59.539Z,20.40
2023-02-28T06:24:03.234Z,22.20
2023-02-28T06:25:07.496Z,20.40
2023-02-28T06:26:10.688Z,21.40
2023-02-28T06:27:13.632Z,19.90
2023-02-28T06:28:17.383Z,22.20
2023-02-28T06:29:20.511Z,22.10
2023-02-28T06:30:27.795Z,21.30
2023-02-28T06:31:31.320Z,23.10
2023-02-28T06:32:34.569Z,23.70
2023-02-28T06:33:39.025Z,26.20
2023-02-28T06:34:42.013Z,25.80
2023-02-28T06:35:47.372Z,26.20
2023-02-28T06:36:52.566Z,29.10
2023-02-28T06:37:55.964Z,30.40
2023-02-28T06:38:58.859Z,30.90
2023-02-28T06:40:02.030Z,28.10
2023-02-28T06:41:05.997Z,27.50
2023-02-28T06:42:08.840Z,28.60
2023-02-28T06:43:14.515Z,27.00
2023-02-28T06:44:18.900Z,27.30
2023-02-28T06:45:21.832Z,26.70
2023-02-28T06:46:24.848Z,25.70
2023-02-28T06:47:27.761Z,25.70
2023-02-28T06:48:30.781Z,25.70
2023-02-28T06:49:35.710Z,26.40
2023-02-28T06:50:38.624Z,25.60
2023-02-28T06:51:46.147Z,24.50
2023-02-28T06:52:49.084Z,25.00
2023-02-28T06:53:52.448Z,23.60
2023-02-28T06:55:00.898Z,22.80
2023-02-28T06:56:13.694Z,21.00
2023-02-28T06:57:16.536Z,22.60
2023-02-28T06:58:20.169Z,22.70
2023-02-28T06:59:23.061Z,21.40
2023-02-28T07:00:26.148Z,21.90
2023-02-28T07:01:29.445Z,22.40
2023-02-28T07:02:32.855Z,22.00
2023-02-28T07:03:37.174Z,20.60
2023-02-28T07:04:41.603Z,20.70
2023-02-28T07:05:44.591Z,19.90
2023-02-28T07:06:47.440Z,18.40
2023-02-28T07:07:50.427Z,18.60
2023-02-28T07:08:54.490Z,18.40
2023-02-28T07:09:57.580Z,18.50
2023-02-28T07:11:00.761Z,18.10
2023-02-28T07:12:04.369Z,17.20
2023-02-28T07:13:08.922Z,17.50
2023-02-28T07:14:11.823Z,16.70
2023-02-28T07:15:14.761Z,16.80
2023-02-28T07:16:17.702Z,16.50
2023-02-28T07:17:20.611Z,16.20
2023-02-28T07:18:23.674Z,14.90
2023-02-28T07:19:26.543Z,14.30
2023-02-28T07:20:29.914Z,15.40
2023-02-28T07:21:32.803Z,14.20
2023-02-28T07:22:35.725Z,13.80
2023-02-28T07:23:40.151Z,14.30
2023-02-28T07:24:43.022Z,14.30
2023-02-28T07:25:46.726Z,14.70
2023-02-28T07:26:49.622Z,13.40
2023-02-28T07:27:52.510Z,14.50
2023-02-28T07:28:55.358Z,13.80
2023-02-28T07:29:58.403Z,12.70
2023-02-28T07:31:08.543Z,13.30
2023-02-28T07:33:15.039Z,14.00
2023-02-28T07:34:17.927Z,15.00
2023-02-28T07:35:20.941Z,14.90
2023-02-28T07:36:23.797Z,14.50
2023-02-28T07:37:26.657Z,15.60
2023-02-28T07:38:29.626Z,13.50
2023-02-28T07:39:32.605Z,13.80
2023-02-28T07:40:37.030Z,13.50
2023-02-28T07:41:44.518Z,14.10
2023-02-28T07:44:41.361Z,13.50
2023-02-28T07:45:48.423Z,13.00
2023-02-28T07:47:12.941Z,12.50
2023-02-28T07:50:16.746Z,15.30
2023-02-28T07:53:21.577Z,12.60
2023-02-28T07:56:05.275Z,12.10
2023-02-28T07:58:30.695Z,12.10
2023-02-28T08:01:37.570Z,10.90
2023-02-28T08:04:25.457Z,10.70
2023-02-28T08:07:31.817Z,6.20
2023-02-28T08:10:36.388Z,7.20
2023-02-28T08:13:40.521Z,8.50
2023-02-28T08:16:46.487Z,8.90
2023-02-28T08:19:40.155Z,8.50
2023-02-28T08:22:48.651Z,7.70
2023-02-28T08:25:56.315Z,7.50
2023-02-28T08:28:40.906Z,7.90
2023-02-28T08:30:35.226Z,8.30
2023-02-28T08:31:38.197Z,8.40
2023-02-28T08:32:41.838Z,9.20
2023-02-28T08:33:45.834Z,8.60
2023-02-28T08:34:48.909Z,8.50
2023-02-28T08:35:56.192Z,8.30
2023-02-28T08:36:59.172Z,8.40
2023-02-28T08:38:01.998Z,7.50
2023-02-28T08:39:05.057Z,8.10
2023-02-28T08:40:08.763Z,7.90
2023-02-28T08:41:13.835Z,8.30
2023-02-28T08:42:16.724Z,7.80
2023-02-28T08:43:19.603Z,7.20
2023-02-28T08:44:22.461Z,7.60
2023-02-28T08:45:25.354Z,6.80
2023-02-28T08:46:28.204Z,8.30
2023-02-28T08:47:31.647Z,7.40
2023-02-28T08:48:38.870Z,6.80
2023-02-28T08:49:41.887Z,6.90
2023-02-28T08:50:46.567Z,7.10
2023-02-28T08:51:53.533Z,6.60
2023-02-28T08:52:56.399Z,7.30
2023-02-28T08:54:01.244Z,7.00
2023-02-28T08:55:04.246Z,6.90
2023-02-28T08:56:17.126Z,6.20
2023-02-28T08:57:19.981Z,7.00
2023-02-28T08:58:22.856Z,6.40
2023-02-28T08:59:25.813Z,6.60
2023-02-28T09:00:28.712Z,7.30
2023-02-28T09:01:32.790Z,7.20
2023-02-28T09:02:36.003Z,6.90
2023-02-28T09:03:39.725Z,6.50
2023-02-28T09:04:42.709Z,7.00
2023-02-28T09:06:03.838Z,6.50
2023-02-28T09:07:07.085Z,6.70
2023-02-28T09:08:09.955Z,7.70
2023-02-28T09:09:12.890Z,7.00
2023-02-28T09:10:18.775Z,7.30
2023-02-28T09:11:21.711Z,6.90
2023-02-28T09:12:26.719Z,7.10
2023-02-28T09:13:30.836Z,7.20
2023-02-28T09:14:33.732Z,6.70
2023-02-28T09:15:38.797Z,7.40
2023-02-28T09:16:41.683Z,7.20
2023-02-28T09:17:46.870Z,7.50
2023-02-28T09:18:51.254Z,7.20
2023-02-28T09:19:54.152Z,7.00
2023-02-28T09:20:57.303Z,7.00
2023-02-28T09:22:00.140Z,7.00
2023-02-28T09:23:02.986Z,6.70
2023-02-28T09:24:06.221Z,7.60
2023-02-28T09:25:09.108Z,7.60
2023-02-28T09:26:17.301Z,7.20
2023-02-28T09:27:20.156Z,7.70
2023-02-28T09:28:23.783Z,6.60
2023-02-28T09:29:26.693Z,7.10
2023-02-28T09:30:30.251Z,7.00
2023-02-28T09:31:33.307Z,7.40
2023-02-28T09:32:36.119Z,7.40
2023-02-28T09:33:38.955Z,7.30
2023-02-28T09:34:41.966Z,7.70
2023-02-28T09:35:44.912Z,8.00
2023-02-28T09:36:48.652Z,7.50
2023-02-28T09:37:53.485Z,7.30
2023-02-28T09:38:56.594Z,7.70
2023-02-28T09:39:59.559Z,7.60
2023-02-28T09:41:05.074Z,7.40
2023-02-28T09:42:22.429Z,7.60
2023-02-28T09:43:30.190Z,7.80
2023-02-28T09:44:38.537Z,8.40
2023-02-28T09:45:44.997Z,8.20
2023-02-28T09:46:53.672Z,8.50
2023-02-28T09:48:05.331Z,8.50
2023-02-28T09:49:14.033Z,8.80
2023-02-28T09:50:36.483Z,9.10
2023-02-28T09:51:54.331Z,8.10
2023-02-28T09:52:57.810Z,8.60
2023-02-28T09:54:02.250Z,9.50
2023-02-28T09:55:20.924Z,10.80
2023-02-28T09:56:29.164Z,7.80
2023-02-28T09:57:42.540Z,7.70
2023-02-28T09:58:45.368Z,8.10
2023-02-28T10:00:02.151Z,8.60
2023-02-28T10:01:42.023Z,7.50
2023-02-28T10:03:04.029Z,8.00
2023-02-28T10:04:26.221Z,7.40
2023-02-28T10:05:34.265Z,6.60
2023-02-28T10:06:45.637Z,7.60
2023-02-28T10:08:14.989Z,6.90
2023-02-28T10:09:24.683Z,7.40
2023-02-28T10:11:45.133Z,6.60
2023-02-28T10:12:48.932Z,7.20
2023-02-28T10:14:03.465Z,7.60
2023-02-28T10:15:07.092Z,8.10
2023-02-28T10:16:18.413Z,7.50
2023-02-28T10:17:26.705Z,8.50
2023-02-28T10:18:39.455Z,7.20
2023-02-28T10:19:51.710Z,7.60
2023-02-28T10:20:56.945Z,8.10
2023-02-28T10:22:28.179Z,9.20
2023-02-28T10:23:36.722Z,8.70
2023-02-28T10:24:54.465Z,8.80
2023-02-28T10:26:04.710Z,8.70
2023-02-28T10:27:15.069Z,8.80
2023-02-28T10:28:19.224Z,7.90
2023-02-28T10:29:22.201Z,9.00
2023-02-28T10:30:25.154Z,8.20
2023-02-28T10:31:28.172Z,8.30
2023-02-28T10:32:37.107Z,8.20
2023-02-28T10:33:40.669Z,8.00
2023-02-28T10:34:43.541Z,8.10
2023-02-28T10:35:46.513Z,7.70
2023-02-28T10:36:51.449Z,9.10
2023-02-28T10:37:59.746Z,7.60
2023-02-28T10:39:02.608Z,7.10
2023-02-28T10:40:07.605Z,7.20
2023-02-28T10:41:16.135Z,7.40
2023-02-28T10:42:26.544Z,6.70
2023-02-28T10:43:29.512Z,7.00
2023-02-28T10:44:32.457Z,7.40
2023-02-28T10:45:39.917Z,6.70
2023-02-28T10:46:43.841Z,7.10
2023-02-28T10:47:57.107Z,6.90
2023-02-28T10:49:07.870Z,7.70
2023-02-28T10:50:52.333Z,7.40
2023-02-28T10:51:58.567Z,7.50
2023-02-28T10:53:25.852Z,7.50
2023-02-28T10:54:29.261Z,7.20
2023-02-28T10:55:32.791Z,7.60
2023-02-28T10:56:36.064Z,7.60
2023-02-28T10:57:39.150Z,8.60
2023-02-28T10:58:57.064Z,7.80
2023-02-28T11:00:34.514Z,7.40
2023-02-28T11:01:50.034Z,7.70
2023-02-28T11:02:52.988Z,8.00
2023-02-28T11:03:56.861Z,7.80
2023-02-28T11:04:59.843Z,7.30
2023-02-28T11:06:14.165Z,7.90
2023-02-28T11:07:24.350Z,7.50
2023-02-28T11:08:27.901Z,7.30
2023-02-28T11:09:40.121Z,7.80
2023-02-28T11:10:56.062Z,7.50
2023-02-28T11:11:59.437Z,7.20
2023-02-28T11:13:03.888Z,7.90
2023-02-28T11:14:16.098Z,7.80
2023-02-28T11:15:30.919Z,7.50
2023-02-28T11:16:37.802Z,7.10
2023-02-28T11:17:41.880Z,7.30
2023-02-28T11:18:53.319Z,7.90
2023-02-28T11:20:02.542Z,8.10
2023-02-28T11:21:05.663Z,7.80
2023-02-28T11:22:08.534Z,7.40
2023-02-28T11:23:15.391Z,7.40
2023-02-28T11:24:27.521Z,6.90
2023-02-28T11:25:34.693Z,7.20
2023-02-28T11:26:41.887Z,7.20
2023-02-28T11:27:48.548Z,7.50
2023-02-28T11:29:09.712Z,7.40
2023-02-28T11:30:43.142Z,6.90
2023-02-28T11:32:13.776Z,6.80
2023-02-28T11:33:33.577Z,7.20
2023-02-28T11:35:41.601Z,7.50
2023-02-28T11:36:45.676Z,7.30
2023-02-28T11:37:48.610Z,6.70
2023-02-28T11:38:53.241Z,7.40
2023-02-28T11:39:56.764Z,8.20
2023-02-28T11:41:24.699Z,7.60
2023-02-28T11:42:51.661Z,8.10
2023-02-28T11:44:06.734Z,7.80
2023-02-28T11:45:37.247Z,7.20
2023-02-28T11:46:58.201Z,7.80
2023-02-28T11:48:33.071Z,7.40
2023-02-28T11:50:03.112Z,7.50
2023-02-28T11:51:22.841Z,7.60
2023-02-28T11:53:56.630Z,6.90
2023-02-28T11:55:22.239Z,8.10
2023-02-28T11:56:33.633Z,7.60
2023-02-28T11:57:45.684Z,7.10
2023-02-28T11:59:06.631Z,7.60
2023-02-28T12:00:38.928Z,6.90
2023-02-28T12:02:22.266Z,7.70
2023-02-28T12:03:46.647Z,7.40
2023-02-28T12:05:14.478Z,7.50
2023-02-28T12:06:27.911Z,7.70
2023-02-28T12:07:48.573Z,7.20
2023-02-28T12:09:04.227Z,8.10
2023-02-28T12:10:24.860Z,8.00
2023-02-28T12:11:35.372Z,8.30
2023-02-28T12:12:49.106Z,8.80
2023-02-28T12:14:19.419Z,8.60
2023-02-28T12:15:33.870Z,8.10
2023-02-28T12:16:46.886Z,8.30
2023-02-28T12:18:00.830Z,8.80
2023-02-28T12:19:18.666Z,9.00
2023-02-28T12:20:34.594Z,9.00
2023-02-28T12:21:58.702Z,9.20
2023-02-28T12:23:16.764Z,8.70
2023-02-28T12:24:57.283Z,9.00
2023-02-28T12:26:12.147Z,9.10
2023-02-28T12:27:19.691Z,9.00
2023-02-28T12:28:32.300Z,8.30
2023-02-28T12:29:46.981Z,9.10
2023-02-28T12:31:02.272Z,9.00
2023-02-28T12:32:14.536Z,8.30
2023-02-28T12:33:24.763Z,8.00
2023-02-28T12:34:32.978Z,8.40
2023-02-28T12:35:50.963Z,8.00
2023-02-28T12:36:57.163Z,7.50
2023-02-28T12:38:23.673Z,7.60
2023-02-28T12:39:41.644Z,8.00
2023-02-28T12:41:08.082Z,7.20
2023-02-28T12:42:33.473Z,8.40
2023-02-28T12:43:44.174Z,8.00
2023-02-28T12:44:55.494Z,8.50
2023-02-28T12:46:05.453Z,8.50
2023-02-28T12:47:15.602Z,8.70
2023-02-28T12:48:28.642Z,10.60
2023-02-28T12:49:55.392Z,8.60
2023-02-28T12:51:01.729Z,8.10
2023-02-28T12:52:06.715Z,7.40
2023-02-28T12:53:30.058Z,7.60
2023-02-28T12:54:56.262Z,7.90
2023-02-28T12:56:29.347Z,7.10
2023-02-28T12:57:59.270Z,7.40
2023-02-28T12:59:12.009Z,7.90
2023-02-28T13:00:19.990Z,7.40
2023-02-28T13:01:44.808Z,7.90
2023-02-28T13:03:03.934Z,8.20
2023-02-28T13:04:28.228Z,7.70
2023-02-28T13:05:57.493Z,7.90
2023-02-28T13:07:05.964Z,7.60
2023-02-28T13:08:11.785Z,7.70
2023-02-28T13:09:16.901Z,7.80
2023-02-28T13:10:20.173Z,7.30
2023-02-28T13:11:44.302Z,7.60
2023-02-28T13:12:55.157Z,7.50
2023-02-28T13:14:00.111Z,7.90
2023-02-28T13:15:17.793Z,8.30
2023-02-28T13:16:20.816Z,7.50
2023-02-28T13:17:27.100Z,7.40
2023-02-28T13:18:34.849Z,7.60
2023-02-28T13:19:45.821Z,7.80
2023-02-28T13:20:50.702Z,7.20
2023-02-28T13:21:54.741Z,6.90
2023-02-28T13:22:58.836Z,7.60
2023-02-28T13:24:05.935Z,7.90
2023-02-28T13:25:34.669Z,7.40
2023-02-28T13:26:37.674Z,7.10
2023-02-28T13:27:42.856Z,7.80
2023-02-28T13:29:02.193Z,8.70
2023-02-28T13:30:43.652Z,8.60
2023-02-28T13:32:07.959Z,7.30
2023-02-28T13:33:45.339Z,7.70
2023-02-28T13:35:08.121Z,7.70
2023-02-28T13:36:20.360Z,8.00
2023-02-28T13:37:23.215Z,9.10
2023-02-28T13:38:35.820Z,8.50
2023-02-28T13:39:39.240Z,8.80
2023-02-28T13:40:42.095Z,8.80
2023-02-28T13:41:46.341Z,9.60
2023-02-28T13:42:51.493Z,8.50
2023-02-28T13:44:14.110Z,9.40
2023-02-28T13:46:03.322Z,9.00
2023-02-28T13:47:06.164Z,8.80
2023-02-28T13:48:28.534Z,9.30
2023-02-28T13:49:37.738Z,8.40
2023-02-28T13:50:42.510Z,8.90
2023-02-28T13:51:49.857Z,8.30
2023-02-28T13:53:17.659Z,8.70
2023-02-28T13:54:56.985Z,8.20
2023-02-28T13:56:02.905Z,9.50
2023-02-28T13:58:00.535Z,8.60
2023-02-28T13:59:27.452Z,9.20
2023-02-28T14:00:33.258Z,8.30
2023-02-28T14:01:55.738Z,8.80
2023-02-28T14:03:13.846Z,8.40
2023-02-28T14:04:47.451Z,8.70
2023-02-28T14:06:18.509Z,8.70
2023-02-28T14:07:26.565Z,8.60
2023-02-28T14:08:29.856Z,8.00
2023-02-28T14:09:40.343Z,8.20
2023-02-28T14:10:46.917Z,8.20
2023-02-28T14:11:50.148Z,9.00
2023-02-28T14:12:59.018Z,9.10
2023-02-28T14:14:03.635Z,8.20
2023-02-28T14:15:28.303Z,8.30
2023-02-28T14:16:45.015Z,8.80
2023-02-28T14:17:55.560Z,8.20
2023-02-28T14:19:32.068Z,9.10
2023-02-28T14:20:35.261Z,8.70
2023-02-28T14:21:48.573Z,9.10
2023-02-28T14:23:03.398Z,8.70
2023-02-28T14:24:24.441Z,8.50
2023-02-28T14:25:41.406Z,9.20
2023-02-28T14:27:21.356Z,10.00
2023-02-28T14:28:48.331Z,9.60
2023-02-28T14:29:51.143Z,9.00
2023-02-28T14:31:05.369Z,9.30
2023-02-28T14:32:36.259Z,9.30
2023-02-28T14:34:06.158Z,8.80
2023-02-28T14:35:27.066Z,9.50
2023-02-28T14:36:43.328Z,9.40
2023-02-28T14:37:47.277Z,8.70
2023-02-28T14:38:54.691Z,9.80
2023-02-28T14:40:00.193Z,9.30
2023-02-28T14:41:13.635Z,9.10
2023-02-28T14:42:36.392Z,8.20
2023-02-28T14:43:50.255Z,8.90
2023-02-28T14:44:59.038Z,8.60
2023-02-28T14:46:04.767Z,8.00
2023-02-28T14:47:16.747Z,8.00
2023-02-28T14:48:20.930Z,8.20
2023-02-28T14:49:32.286Z,8.30
2023-02-28T14:50:37.498Z,8.40
2023-02-28T14:51:40.964Z,8.50
2023-02-28T14:52:44.350Z,8.10
2023-02-28T14:53:50.665Z,8.50
2023-02-28T14:54:55.678Z,8.60
2023-02-28T14:55:58.590Z,9.10
2023-02-28T14:57:01.564Z,9.30
2023-02-28T14:58:23.330Z,8.50
2023-02-28T14:59:31.843Z,9.20
2023-02-28T15:00:38.561Z,9.00
2023-02-28T15:01:41.428Z,9.80
2023-02-28T15:02:44.684Z,9.30
2023-02-28T15:03:48.314Z,9.20
2023-02-28T15:05:19.150Z,8.90
2023-02-28T15:06:24.052Z,8.90
2023-02-28T15:07:31.308Z,9.40
2023-02-28T15:08:37.292Z,8.80
2023-02-28T15:09:40.487Z,9.30
2023-02-28T15:10:54.175Z,9.70
2023-02-28T15:11:57.178Z,9.60
2023-02-28T15:13:07.377Z,8.50
2023-02-28T15:14:17.840Z,8.70
2023-02-28T15:15:28.173Z,9.30
2023-02-28T15:16:42.799Z,9.20
2023-02-28T15:17:50.511Z,9.60
2023-02-28T15:19:03.452Z,10.30
2023-02-28T15:20:06.938Z,11.00
2023-02-28T15:21:18.534Z,10.40
2023-02-28T15:22:30.622Z,9.70
2023-02-28T15:23:37.357Z,9.40
2023-02-28T15:24:45.758Z,10.00
2023-02-28T15:25:51.020Z,9.70
2023-02-28T15:27:04.588Z,10.50
2023-02-28T15:28:16.905Z,9.30
2023-02-28T15:29:25.786Z,9.80
2023-02-28T15:30:31.988Z,10.70
2023-02-28T15:31:54.038Z,9.60
2023-02-28T15:33:21.865Z,10.10
2023-02-28T15:34:44.011Z,10.10
2023-02-28T15:35:49.045Z,9.80
2023-02-28T15:36:52.159Z,11.60
2023-02-28T15:38:16.476Z,11.00
2023-02-28T15:39:23.292Z,9.70
2023-02-28T15:41:00.995Z,10.30